sensor_id;sensor_type;location;lat;lon;timestamp;P1;durP1;ratioP1;P2;durP2;ratioP2
7047;SDS011;3565;53.254;10.352;2022-08-30T00:02:37;4.07;;;2.47;;
7047;SDS011;3565;53.254;10.352;2022-08-30T00:05:07;3.23;;;2.10;;
7047;SDS011;3565;53.254;10.352;2022-08-30T00:07:38;2.63;;;2.30;;
7047;SDS011;3565;53.254;10.352;2022-08-30T00:10:07;4.10;;;2.50;;
7047;SDS011;3565;53.254;10.352;2022-08-30T00:12:37;2.53;;;2.13;;
7047;SDS011;3565;53.254;10.352;2022-08-30T00:15:06;2.73;;;2.10;;
7047;SDS011;3565;53.254;10.352;2022-08-30T00:17:35;5.07;;;2.57;;
7047;SDS011;3565;53.254;10.352;2022-08-30T00:20:06;3.37;;;2.50;;
7047;SDS011;3565;53.254;10.352;2022-08-30T00:22:35;3.10;;;2.43;;
7047;SDS011;3565;53.254;10.352;2022-08-30T00:25:05;2.37;;;2.17;;
7047;SDS011;3565;53.254;10.352;2022-08-30T00:27:33;3.40;;;2.20;;
7047;SDS011;3565;53.254;10.352;2022-08-30T00:30:04;3.13;;;2.23;;
7047;SDS011;3565;53.254;10.352;2022-08-30T00:32:35;6.20;;;2.50;;
7047;SDS011;3565;53.254;10.352;2022-08-30T00:35:04;2.97;;;2.40;;
7047;SDS011;3565;53.254;10.352;2022-08-30T00:37:34;2.50;;;2.30;;
7047;SDS011;3565;53.254;10.352;2022-08-30T00:40:03;2.73;;;2.30;;
7047;SDS011;3565;53.254;10.352;2022-08-30T00:42:32;2.73;;;2.47;;
7047;SDS011;3565;53.254;10.352;2022-08-30T00:45:00;3.60;;;2.77;;
7047;SDS011;3565;53.254;10.352;2022-08-30T00:47:31;3.40;;;2.60;;
7047;SDS011;3565;53.254;10.352;2022-08-30T00:49:59;3.00;;;2.37;;
7047;SDS011;3565;53.254;10.352;2022-08-30T00:52:28;4.13;;;2.20;;
7047;SDS011;3565;53.254;10.352;2022-08-30T00:54:56;2.80;;;2.27;;
7047;SDS011;3565;53.254;10.352;2022-08-30T00:57:24;4.70;;;2.50;;
7047;SDS011;3565;53.254;10.352;2022-08-30T00:59:53;5.47;;;3.07;;
7047;SDS011;3565;53.254;10.352;2022-08-30T01:02:22;6.53;;;2.60;;
7047;SDS011;3565;53.254;10.352;2022-08-30T01:04:50;4.03;;;2.67;;
7047;SDS011;3565;53.254;10.352;2022-08-30T01:07:19;3.03;;;2.60;;
7047;SDS011;3565;53.254;10.352;2022-08-30T01:09:47;3.03;;;2.70;;
7047;SDS011;3565;53.254;10.352;2022-08-30T01:12:15;3.50;;;2.37;;
7047;SDS011;3565;53.254;10.352;2022-08-30T01:14:44;2.97;;;2.40;;
7047;SDS011;3565;53.254;10.352;2022-08-30T01:17:12;3.57;;;2.20;;
7047;SDS011;3565;53.254;10.352;2022-08-30T01:19:42;4.00;;;2.50;;
7047;SDS011;3565;53.254;10.352;2022-08-30T01:22:16;3.07;;;2.50;;
7047;SDS011;3565;53.254;10.352;2022-08-30T01:24:41;4.30;;;2.57;;
7047;SDS011;3565;53.254;10.352;2022-08-30T01:27:12;2.77;;;2.30;;
7047;SDS011;3565;53.254;10.352;2022-08-30T01:29:40;2.70;;;2.43;;
7047;SDS011;3565;53.254;10.352;2022-08-30T01:32:17;3.20;;;2.50;;
7047;SDS011;3565;53.254;10.352;2022-08-30T01:35:13;3.37;;;2.50;;
7047;SDS011;3565;53.254;10.352;2022-08-30T01:37:42;2.83;;;2.50;;
7047;SDS011;3565;53.254;10.352;2022-08-30T01:40:12;2.80;;;2.27;;
7047;SDS011;3565;53.254;10.352;2022-08-30T01:42:41;3.37;;;2.27;;
7047;SDS011;3565;53.254;10.352;2022-08-30T01:45:10;2.67;;;2.20;;
7047;SDS011;3565;53.254;10.352;2022-08-30T01:47:39;2.83;;;2.23;;
7047;SDS011;3565;53.254;10.352;2022-08-30T01:50:09;2.77;;;2.50;;
7047;SDS011;3565;53.254;10.352;2022-08-30T01:52:37;2.67;;;2.47;;
7047;SDS011;3565;53.254;10.352;2022-08-30T01:55:07;2.60;;;2.40;;
7047;SDS011;3565;53.254;10.352;2022-08-30T01:57:36;2.30;;;2.10;;
7047;SDS011;3565;53.254;10.352;2022-08-30T02:00:06;3.17;;;2.23;;
7047;SDS011;3565;53.254;10.352;2022-08-30T02:02:35;2.93;;;2.30;;
7047;SDS011;3565;53.254;10.352;2022-08-30T02:05:04;3.80;;;2.80;;
7047;SDS011;3565;53.254;10.352;2022-08-30T02:07:33;3.47;;;2.53;;
7047;SDS011;3565;53.254;10.352;2022-08-30T02:10:02;3.93;;;2.43;;
7047;SDS011;3565;53.254;10.352;2022-08-30T02:12:31;3.43;;;2.40;;
7047;SDS011;3565;53.254;10.352;2022-08-30T02:15:01;12.17;;;3.03;;
7047;SDS011;3565;53.254;10.352;2022-08-30T02:17:29;5.17;;;2.70;;
7047;SDS011;3565;53.254;10.352;2022-08-30T02:19:58;4.13;;;2.77;;
7047;SDS011;3565;53.254;10.352;2022-08-30T02:22:27;6.37;;;3.23;;
7047;SDS011;3565;53.254;10.352;2022-08-30T02:24:57;4.33;;;2.70;;
7047;SDS011;3565;53.254;10.352;2022-08-30T02:27:25;3.53;;;2.97;;
7047;SDS011;3565;53.254;10.352;2022-08-30T02:29:54;4.10;;;3.20;;
7047;SDS011;3565;53.254;10.352;2022-08-30T02:32:22;3.67;;;3.00;;
7047;SDS011;3565;53.254;10.352;2022-08-30T02:34:51;4.33;;;2.80;;
7047;SDS011;3565;53.254;10.352;2022-08-30T02:37:21;3.10;;;2.80;;
7047;SDS011;3565;53.254;10.352;2022-08-30T02:39:49;3.47;;;2.93;;
7047;SDS011;3565;53.254;10.352;2022-08-30T02:42:18;4.17;;;3.03;;
7047;SDS011;3565;53.254;10.352;2022-08-30T02:44:46;4.63;;;3.10;;
7047;SDS011;3565;53.254;10.352;2022-08-30T02:47:15;5.07;;;3.40;;
7047;SDS011;3565;53.254;10.352;2022-08-30T02:49:43;4.53;;;3.07;;
7047;SDS011;3565;53.254;10.352;2022-08-30T02:52:12;4.93;;;3.10;;
7047;SDS011;3565;53.254;10.352;2022-08-30T02:54:40;5.03;;;3.37;;
7047;SDS011;3565;53.254;10.352;2022-08-30T02:57:09;9.00;;;3.27;;
7047;SDS011;3565;53.254;10.352;2022-08-30T02:59:39;6.23;;;3.40;;
7047;SDS011;3565;53.254;10.352;2022-08-30T03:02:09;4.80;;;3.53;;
7047;SDS011;3565;53.254;10.352;2022-08-30T03:04:38;6.43;;;3.50;;
7047;SDS011;3565;53.254;10.352;2022-08-30T03:07:09;5.23;;;3.30;;
7047;SDS011;3565;53.254;10.352;2022-08-30T03:09:38;3.43;;;3.00;;
7047;SDS011;3565;53.254;10.352;2022-08-30T03:12:06;4.77;;;3.27;;
7047;SDS011;3565;53.254;10.352;2022-08-30T03:14:37;4.60;;;2.93;;
7047;SDS011;3565;53.254;10.352;2022-08-30T03:17:06;5.03;;;3.30;;
7047;SDS011;3565;53.254;10.352;2022-08-30T03:19:35;7.60;;;3.80;;
7047;SDS011;3565;53.254;10.352;2022-08-30T03:22:04;3.30;;;3.00;;
7047;SDS011;3565;53.254;10.352;2022-08-30T03:24:33;4.93;;;3.07;;
7047;SDS011;3565;53.254;10.352;2022-08-30T03:27:02;4.90;;;3.23;;
7047;SDS011;3565;53.254;10.352;2022-08-30T03:29:30;3.83;;;2.90;;
7047;SDS011;3565;53.254;10.352;2022-08-30T03:31:59;4.10;;;3.13;;
7047;SDS011;3565;53.254;10.352;2022-08-30T03:34:27;3.03;;;2.83;;
7047;SDS011;3565;53.254;10.352;2022-08-30T03:36:55;5.97;;;3.00;;
7047;SDS011;3565;53.254;10.352;2022-08-30T03:39:26;5.93;;;3.33;;
7047;SDS011;3565;53.254;10.352;2022-08-30T03:41:55;3.83;;;3.07;;
7047;SDS011;3565;53.254;10.352;2022-08-30T03:44:23;4.07;;;3.20;;
7047;SDS011;3565;53.254;10.352;2022-08-30T03:46:51;5.70;;;3.40;;
7047;SDS011;3565;53.254;10.352;2022-08-30T03:49:20;4.43;;;3.43;;
7047;SDS011;3565;53.254;10.352;2022-08-30T03:51:48;3.60;;;3.30;;
7047;SDS011;3565;53.254;10.352;2022-08-30T03:54:17;3.80;;;3.40;;
7047;SDS011;3565;53.254;10.352;2022-08-30T03:56:47;3.67;;;2.87;;
7047;SDS011;3565;53.254;10.352;2022-08-30T03:59:15;3.80;;;3.40;;
7047;SDS011;3565;53.254;10.352;2022-08-30T04:01:44;5.53;;;3.20;;
7047;SDS011;3565;53.254;10.352;2022-08-30T04:04:13;3.60;;;3.30;;
7047;SDS011;3565;53.254;10.352;2022-08-30T04:06:43;5.17;;;3.10;;
7047;SDS011;3565;53.254;10.352;2022-08-30T04:09:14;4.10;;;3.43;;
7047;SDS011;3565;53.254;10.352;2022-08-30T04:11:42;4.10;;;3.50;;
7047;SDS011;3565;53.254;10.352;2022-08-30T04:14:11;3.47;;;3.17;;
7047;SDS011;3565;53.254;10.352;2022-08-30T04:16:40;3.53;;;3.23;;
7047;SDS011;3565;53.254;10.352;2022-08-30T04:19:08;3.27;;;2.97;;
7047;SDS011;3565;53.254;10.352;2022-08-30T04:21:36;3.37;;;2.83;;
7047;SDS011;3565;53.254;10.352;2022-08-30T04:24:05;3.23;;;2.90;;
7047;SDS011;3565;53.254;10.352;2022-08-30T04:26:33;3.57;;;3.17;;
7047;SDS011;3565;53.254;10.352;2022-08-30T04:29:02;4.00;;;3.07;;
7047;SDS011;3565;53.254;10.352;2022-08-30T04:31:30;4.80;;;3.17;;
7047;SDS011;3565;53.254;10.352;2022-08-30T04:33:59;4.27;;;3.47;;
7047;SDS011;3565;53.254;10.352;2022-08-30T04:36:27;3.43;;;3.03;;
7047;SDS011;3565;53.254;10.352;2022-08-30T04:38:55;4.57;;;3.23;;
7047;SDS011;3565;53.254;10.352;2022-08-30T04:41:23;4.90;;;3.33;;
7047;SDS011;3565;53.254;10.352;2022-08-30T04:43:52;3.53;;;2.90;;
7047;SDS011;3565;53.254;10.352;2022-08-30T04:46:20;6.23;;;3.40;;
7047;SDS011;3565;53.254;10.352;2022-08-30T04:48:48;5.20;;;3.23;;
7047;SDS011;3565;53.254;10.352;2022-08-30T04:51:17;7.10;;;3.80;;
7047;SDS011;3565;53.254;10.352;2022-08-30T04:53:45;4.57;;;3.30;;
7047;SDS011;3565;53.254;10.352;2022-08-30T04:56:15;4.80;;;3.40;;
7047;SDS011;3565;53.254;10.352;2022-08-30T04:58:45;6.07;;;3.77;;
7047;SDS011;3565;53.254;10.352;2022-08-30T05:01:14;5.80;;;3.70;;
7047;SDS011;3565;53.254;10.352;2022-08-30T05:03:43;4.70;;;3.10;;
7047;SDS011;3565;53.254;10.352;2022-08-30T05:06:12;3.87;;;3.40;;
7047;SDS011;3565;53.254;10.352;2022-08-30T05:08:40;3.63;;;3.30;;
7047;SDS011;3565;53.254;10.352;2022-08-30T05:11:09;4.87;;;3.70;;
7047;SDS011;3565;53.254;10.352;2022-08-30T05:13:37;6.73;;;4.00;;
7047;SDS011;3565;53.254;10.352;2022-08-30T05:16:06;3.37;;;3.00;;
7047;SDS011;3565;53.254;10.352;2022-08-30T05:18:35;3.80;;;3.43;;
7047;SDS011;3565;53.254;10.352;2022-08-30T05:21:05;3.50;;;3.20;;
7047;SDS011;3565;53.254;10.352;2022-08-30T05:23:34;4.63;;;3.30;;
7047;SDS011;3565;53.254;10.352;2022-08-30T05:26:04;3.47;;;3.17;;
7047;SDS011;3565;53.254;10.352;2022-08-30T05:28:33;4.27;;;3.10;;
7047;SDS011;3565;53.254;10.352;2022-08-30T05:31:09;6.73;;;3.87;;
7047;SDS011;3565;53.254;10.352;2022-08-30T05:33:33;5.33;;;3.50;;
7047;SDS011;3565;53.254;10.352;2022-08-30T05:36:05;4.97;;;3.50;;
7047;SDS011;3565;53.254;10.352;2022-08-30T05:38:34;3.57;;;3.27;;
7047;SDS011;3565;53.254;10.352;2022-08-30T05:41:04;4.33;;;3.43;;
7047;SDS011;3565;53.254;10.352;2022-08-30T05:43:33;3.70;;;3.37;;
7047;SDS011;3565;53.254;10.352;2022-08-30T05:46:02;6.00;;;3.60;;
7047;SDS011;3565;53.254;10.352;2022-08-30T05:48:32;3.37;;;3.00;;
7047;SDS011;3565;53.254;10.352;2022-08-30T05:51:06;3.60;;;3.17;;
7047;SDS011;3565;53.254;10.352;2022-08-30T05:53:34;3.40;;;3.10;;
7047;SDS011;3565;53.254;10.352;2022-08-30T05:56:04;3.60;;;3.30;;
7047;SDS011;3565;53.254;10.352;2022-08-30T05:58:33;3.40;;;3.10;;
7047;SDS011;3565;53.254;10.352;2022-08-30T06:01:02;4.70;;;3.17;;
7047;SDS011;3565;53.254;10.352;2022-08-30T06:03:30;4.53;;;3.27;;
7047;SDS011;3565;53.254;10.352;2022-08-30T06:05:59;4.30;;;2.87;;
7047;SDS011;3565;53.254;10.352;2022-08-30T06:08:28;5.53;;;3.10;;
7047;SDS011;3565;53.254;10.352;2022-08-30T06:10:56;3.60;;;2.87;;
7047;SDS011;3565;53.254;10.352;2022-08-30T06:13:24;3.60;;;3.17;;
7047;SDS011;3565;53.254;10.352;2022-08-30T06:15:53;4.30;;;3.00;;
7047;SDS011;3565;53.254;10.352;2022-08-30T06:18:23;5.50;;;3.10;;
7047;SDS011;3565;53.254;10.352;2022-08-30T06:20:51;3.50;;;3.00;;
7047;SDS011;3565;53.254;10.352;2022-08-30T06:23:20;3.77;;;3.00;;
7047;SDS011;3565;53.254;10.352;2022-08-30T06:25:50;3.97;;;2.90;;
7047;SDS011;3565;53.254;10.352;2022-08-30T06:28:19;3.70;;;3.00;;
7047;SDS011;3565;53.254;10.352;2022-08-30T06:30:47;3.83;;;3.00;;
7047;SDS011;3565;53.254;10.352;2022-08-30T06:33:16;4.23;;;2.83;;
7047;SDS011;3565;53.254;10.352;2022-08-30T06:35:45;2.80;;;2.60;;
7047;SDS011;3565;53.254;10.352;2022-08-30T06:38:13;3.70;;;2.90;;
7047;SDS011;3565;53.254;10.352;2022-08-30T06:40:42;3.73;;;2.97;;
7047;SDS011;3565;53.254;10.352;2022-08-30T06:43:10;6.13;;;3.20;;
7047;SDS011;3565;53.254;10.352;2022-08-30T06:45:40;4.33;;;3.07;;
7047;SDS011;3565;53.254;10.352;2022-08-30T06:48:08;4.30;;;2.80;;
7047;SDS011;3565;53.254;10.352;2022-08-30T06:50:36;5.83;;;3.17;;
7047;SDS011;3565;53.254;10.352;2022-08-30T06:53:04;5.50;;;2.90;;
7047;SDS011;3565;53.254;10.352;2022-08-30T06:55:33;3.77;;;2.80;;
7047;SDS011;3565;53.254;10.352;2022-08-30T06:58:01;6.00;;;3.00;;
7047;SDS011;3565;53.254;10.352;2022-08-30T07:00:31;5.23;;;2.80;;
7047;SDS011;3565;53.254;10.352;2022-08-30T07:03:01;4.40;;;2.77;;
7047;SDS011;3565;53.254;10.352;2022-08-30T07:05:29;5.53;;;2.70;;
7047;SDS011;3565;53.254;10.352;2022-08-30T07:07:58;5.77;;;2.93;;
7047;SDS011;3565;53.254;10.352;2022-08-30T07:10:26;4.27;;;2.50;;
7047;SDS011;3565;53.254;10.352;2022-08-30T07:12:55;5.60;;;2.67;;
7047;SDS011;3565;53.254;10.352;2022-08-30T07:15:23;5.20;;;2.80;;
7047;SDS011;3565;53.254;10.352;2022-08-30T07:17:52;4.67;;;2.60;;
7047;SDS011;3565;53.254;10.352;2022-08-30T07:20:38;4.77;;;2.83;;
7047;SDS011;3565;53.254;10.352;2022-08-30T07:23:07;3.73;;;2.30;;
7047;SDS011;3565;53.254;10.352;2022-08-30T07:25:36;4.80;;;2.60;;
7047;SDS011;3565;53.254;10.352;2022-08-30T07:28:07;4.03;;;2.57;;
7047;SDS011;3565;53.254;10.352;2022-08-30T07:30:34;4.43;;;2.40;;
7047;SDS011;3565;53.254;10.352;2022-08-30T07:33:03;4.07;;;2.27;;
7047;SDS011;3565;53.254;10.352;2022-08-30T07:35:32;8.53;;;2.70;;
7047;SDS011;3565;53.254;10.352;2022-08-30T07:38:00;4.33;;;2.40;;
7047;SDS011;3565;53.254;10.352;2022-08-30T07:40:28;2.90;;;2.47;;
7047;SDS011;3565;53.254;10.352;2022-08-30T07:42:57;4.63;;;2.17;;
7047;SDS011;3565;53.254;10.352;2022-08-30T07:45:34;2.10;;;1.90;;
7047;SDS011;3565;53.254;10.352;2022-08-30T07:48:04;3.73;;;2.20;;
7047;SDS011;3565;53.254;10.352;2022-08-30T07:50:33;2.67;;;2.27;;
7047;SDS011;3565;53.254;10.352;2022-08-30T07:53:01;3.90;;;2.53;;
7047;SDS011;3565;53.254;10.352;2022-08-30T07:55:30;4.10;;;2.90;;
7047;SDS011;3565;53.254;10.352;2022-08-30T07:57:58;2.50;;;2.30;;
7047;SDS011;3565;53.254;10.352;2022-08-30T08:03:11;3.37;;;2.23;;
7047;SDS011;3565;53.254;10.352;2022-08-30T08:05:40;2.57;;;2.00;;
7047;SDS011;3565;53.254;10.352;2022-08-30T08:08:10;1.77;;;1.67;;
7047;SDS011;3565;53.254;10.352;2022-08-30T08:10:39;4.00;;;1.67;;
7047;SDS011;3565;53.254;10.352;2022-08-30T08:13:08;1.90;;;1.63;;
7047;SDS011;3565;53.254;10.352;2022-08-30T08:15:36;2.23;;;1.40;;
7047;SDS011;3565;53.254;10.352;2022-08-30T08:18:05;2.20;;;1.43;;
7047;SDS011;3565;53.254;10.352;2022-08-30T08:20:33;3.10;;;1.43;;
7047;SDS011;3565;53.254;10.352;2022-08-30T08:23:02;1.93;;;1.70;;
7047;SDS011;3565;53.254;10.352;2022-08-30T08:25:30;3.10;;;1.60;;
7047;SDS011;3565;53.254;10.352;2022-08-30T08:28:01;1.37;;;1.20;;
7047;SDS011;3565;53.254;10.352;2022-08-30T08:30:31;1.20;;;1.10;;
7047;SDS011;3565;53.254;10.352;2022-08-30T08:33:00;0.90;;;0.90;;
7047;SDS011;3565;53.254;10.352;2022-08-30T08:35:29;1.70;;;1.60;;
7047;SDS011;3565;53.254;10.352;2022-08-30T08:37:58;2.17;;;1.50;;
7047;SDS011;3565;53.254;10.352;2022-08-30T08:40:27;1.77;;;1.33;;
7047;SDS011;3565;53.254;10.352;2022-08-30T08:42:59;1.30;;;1.20;;
7047;SDS011;3565;53.254;10.352;2022-08-30T08:45:42;1.37;;;1.23;;
7047;SDS011;3565;53.254;10.352;2022-08-30T08:48:13;2.30;;;1.30;;
7047;SDS011;3565;53.254;10.352;2022-08-30T08:50:42;1.63;;;1.30;;
7047;SDS011;3565;53.254;10.352;2022-08-30T08:53:13;1.30;;;1.20;;
7047;SDS011;3565;53.254;10.352;2022-08-30T08:56:00;2.00;;;1.37;;
7047;SDS011;3565;53.254;10.352;2022-08-30T08:58:31;1.30;;;1.10;;
7047;SDS011;3565;53.254;10.352;2022-08-30T09:01:00;2.13;;;1.23;;
7047;SDS011;3565;53.254;10.352;2022-08-30T09:03:29;2.13;;;1.50;;
7047;SDS011;3565;53.254;10.352;2022-08-30T09:05:58;1.20;;;1.10;;
7047;SDS011;3565;53.254;10.352;2022-08-30T09:08:28;1.33;;;1.23;;
7047;SDS011;3565;53.254;10.352;2022-08-30T09:11:00;1.40;;;1.27;;
7047;SDS011;3565;53.254;10.352;2022-08-30T09:13:28;2.03;;;1.43;;
7047;SDS011;3565;53.254;10.352;2022-08-30T09:15:57;1.90;;;1.30;;
7047;SDS011;3565;53.254;10.352;2022-08-30T09:18:39;1.77;;;1.50;;
7047;SDS011;3565;53.254;10.352;2022-08-30T09:21:08;1.70;;;1.33;;
7047;SDS011;3565;53.254;10.352;2022-08-30T09:23:37;1.30;;;1.20;;
7047;SDS011;3565;53.254;10.352;2022-08-30T09:26:07;5.40;;;1.30;;
7047;SDS011;3565;53.254;10.352;2022-08-30T09:28:44;2.50;;;1.10;;
7047;SDS011;3565;53.254;10.352;2022-08-30T09:31:16;1.50;;;1.20;;
7047;SDS011;3565;53.254;10.352;2022-08-30T09:33:37;1.20;;;1.10;;
7047;SDS011;3565;53.254;10.352;2022-08-30T09:36:12;1.47;;;1.37;;
7047;SDS011;3565;53.254;10.352;2022-08-30T09:38:40;1.70;;;1.33;;
7047;SDS011;3565;53.254;10.352;2022-08-30T09:41:28;1.30;;;1.20;;
7047;SDS011;3565;53.254;10.352;2022-08-30T09:44:04;1.97;;;1.50;;
7047;SDS011;3565;53.254;10.352;2022-08-30T09:46:33;1.33;;;1.10;;
7047;SDS011;3565;53.254;10.352;2022-08-30T09:49:02;1.57;;;1.10;;
7047;SDS011;3565;53.254;10.352;2022-08-30T09:51:37;2.10;;;1.40;;
7047;SDS011;3565;53.254;10.352;2022-08-30T09:54:08;1.30;;;1.20;;
7047;SDS011;3565;53.254;10.352;2022-08-30T09:56:37;1.50;;;1.10;;
7047;SDS011;3565;53.254;10.352;2022-08-30T09:59:07;1.83;;;1.33;;
7047;SDS011;3565;53.254;10.352;2022-08-30T10:01:38;2.00;;;1.40;;
7047;SDS011;3565;53.254;10.352;2022-08-30T10:04:10;1.33;;;1.23;;
7047;SDS011;3565;53.254;10.352;2022-08-30T10:06:38;1.60;;;1.33;;
7047;SDS011;3565;53.254;10.352;2022-08-30T10:09:10;1.30;;;1.20;;
7047;SDS011;3565;53.254;10.352;2022-08-30T10:11:41;3.33;;;1.33;;
7047;SDS011;3565;53.254;10.352;2022-08-30T10:14:31;1.30;;;1.20;;
7047;SDS011;3565;53.254;10.352;2022-08-30T10:16:59;2.23;;;1.20;;
7047;SDS011;3565;53.254;10.352;2022-08-30T10:19:34;1.67;;;1.27;;
7047;SDS011;3565;53.254;10.352;2022-08-30T10:22:02;1.40;;;1.17;;
7047;SDS011;3565;53.254;10.352;2022-08-30T10:24:31;1.37;;;1.07;;
7047;SDS011;3565;53.254;10.352;2022-08-30T10:27:03;1.40;;;1.30;;
7047;SDS011;3565;53.254;10.352;2022-08-30T10:29:33;2.00;;;1.20;;
7047;SDS011;3565;53.254;10.352;2022-08-30T10:32:02;6.27;;;1.63;;
7047;SDS011;3565;53.254;10.352;2022-08-30T10:34:33;1.17;;;1.07;;
7047;SDS011;3565;53.254;10.352;2022-08-30T10:37:03;1.13;;;1.03;;
7047;SDS011;3565;53.254;10.352;2022-08-30T10:39:33;1.27;;;1.17;;
7047;SDS011;3565;53.254;10.352;2022-08-30T10:42:04;1.10;;;1.00;;
7047;SDS011;3565;53.254;10.352;2022-08-30T10:44:33;1.20;;;1.10;;
7047;SDS011;3565;53.254;10.352;2022-08-30T10:47:04;1.63;;;1.23;;
7047;SDS011;3565;53.254;10.352;2022-08-30T10:49:34;2.70;;;1.23;;
7047;SDS011;3565;53.254;10.352;2022-08-30T10:52:09;3.30;;;1.10;;
7047;SDS011;3565;53.254;10.352;2022-08-30T10:54:37;2.37;;;1.03;;
7047;SDS011;3565;53.254;10.352;2022-08-30T10:57:06;2.07;;;1.07;;
7047;SDS011;3565;53.254;10.352;2022-08-30T10:59:37;1.47;;;1.10;;
7047;SDS011;3565;53.254;10.352;2022-08-30T11:02:15;1.00;;;1.00;;
7047;SDS011;3565;53.254;10.352;2022-08-30T11:04:56;1.23;;;1.13;;
7047;SDS011;3565;53.254;10.352;2022-08-30T11:07:29;2.47;;;1.40;;
7047;SDS011;3565;53.254;10.352;2022-08-30T11:10:08;1.23;;;1.10;;
7047;SDS011;3565;53.254;10.352;2022-08-30T11:12:41;1.20;;;1.10;;
7047;SDS011;3565;53.254;10.352;2022-08-30T11:15:12;1.00;;;0.90;;
7047;SDS011;3565;53.254;10.352;2022-08-30T11:17:53;0.90;;;0.87;;
7047;SDS011;3565;53.254;10.352;2022-08-30T11:23:18;1.37;;;1.00;;
7047;SDS011;3565;53.254;10.352;2022-08-30T11:25:49;1.33;;;1.23;;
7047;SDS011;3565;53.254;10.352;2022-08-30T11:31:09;0.80;;;0.80;;
7047;SDS011;3565;53.254;10.352;2022-08-30T11:33:42;1.20;;;1.10;;
7047;SDS011;3565;53.254;10.352;2022-08-30T11:36:58;1.80;;;1.00;;
7047;SDS011;3565;53.254;10.352;2022-08-30T11:38:58;1.20;;;1.10;;
7047;SDS011;3565;53.254;10.352;2022-08-30T11:41:32;1.27;;;1.17;;
7047;SDS011;3565;53.254;10.352;2022-08-30T11:44:24;1.30;;;1.10;;
7047;SDS011;3565;53.254;10.352;2022-08-30T11:46:44;1.27;;;1.00;;
7047;SDS011;3565;53.254;10.352;2022-08-30T11:54:58;1.10;;;1.00;;
7047;SDS011;3565;53.254;10.352;2022-08-30T11:57:29;1.17;;;1.07;;
7047;SDS011;3565;53.254;10.352;2022-08-30T12:00:01;1.10;;;1.00;;
7047;SDS011;3565;53.254;10.352;2022-08-30T12:08:53;1.27;;;1.17;;
7047;SDS011;3565;53.254;10.352;2022-08-30T12:14:32;1.27;;;1.17;;
7047;SDS011;3565;53.254;10.352;2022-08-30T12:17:00;1.20;;;1.10;;
7047;SDS011;3565;53.254;10.352;2022-08-30T12:19:47;1.00;;;1.00;;
7047;SDS011;3565;53.254;10.352;2022-08-30T12:22:17;1.50;;;1.40;;
7047;SDS011;3565;53.254;10.352;2022-08-30T12:24:46;1.43;;;1.30;;
7047;SDS011;3565;53.254;10.352;2022-08-30T12:27:23;1.70;;;1.27;;
7047;SDS011;3565;53.254;10.352;2022-08-30T12:29:51;1.30;;;1.20;;
7047;SDS011;3565;53.254;10.352;2022-08-30T12:32:20;1.30;;;1.20;;
7047;SDS011;3565;53.254;10.352;2022-08-30T12:34:49;1.50;;;1.33;;
7047;SDS011;3565;53.254;10.352;2022-08-30T12:37:21;1.77;;;1.50;;
7047;SDS011;3565;53.254;10.352;2022-08-30T12:39:59;2.33;;;1.50;;
7047;SDS011;3565;53.254;10.352;2022-08-30T12:42:29;1.47;;;1.37;;
7047;SDS011;3565;53.254;10.352;2022-08-30T12:44:58;1.87;;;1.30;;
7047;SDS011;3565;53.254;10.352;2022-08-30T12:47:27;1.30;;;1.20;;
7047;SDS011;3565;53.254;10.352;2022-08-30T12:49:57;1.80;;;1.40;;
7047;SDS011;3565;53.254;10.352;2022-08-30T12:52:28;1.93;;;1.27;;
7047;SDS011;3565;53.254;10.352;2022-08-30T12:55:05;3.03;;;1.37;;
7047;SDS011;3565;53.254;10.352;2022-08-30T12:57:37;1.63;;;1.33;;
7047;SDS011;3565;53.254;10.352;2022-08-30T13:00:08;1.30;;;1.20;;
7047;SDS011;3565;53.254;10.352;2022-08-30T13:02:43;3.57;;;1.50;;
7047;SDS011;3565;53.254;10.352;2022-08-30T13:11:02;2.53;;;1.50;;
7047;SDS011;3565;53.254;10.352;2022-08-30T13:13:33;2.10;;;1.47;;
7047;SDS011;3565;53.254;10.352;2022-08-30T13:16:07;1.40;;;1.30;;
7047;SDS011;3565;53.254;10.352;2022-08-30T13:18:35;3.67;;;1.57;;
7047;SDS011;3565;53.254;10.352;2022-08-30T13:21:11;1.43;;;1.33;;
7047;SDS011;3565;53.254;10.352;2022-08-30T13:23:41;1.77;;;1.43;;
7047;SDS011;3565;53.254;10.352;2022-08-30T13:26:09;1.63;;;1.40;;
7047;SDS011;3565;53.254;10.352;2022-08-30T13:28:42;2.37;;;1.47;;
7047;SDS011;3565;53.254;10.352;2022-08-30T13:31:10;2.37;;;1.30;;
7047;SDS011;3565;53.254;10.352;2022-08-30T13:33:39;2.67;;;1.50;;
7047;SDS011;3565;53.254;10.352;2022-08-30T13:36:08;4.40;;;1.60;;
7047;SDS011;3565;53.254;10.352;2022-08-30T13:38:36;2.33;;;1.30;;
7047;SDS011;3565;53.254;10.352;2022-08-30T13:41:05;2.47;;;1.53;;
7047;SDS011;3565;53.254;10.352;2022-08-30T13:43:33;1.80;;;1.50;;
7047;SDS011;3565;53.254;10.352;2022-08-30T13:46:02;2.47;;;1.40;;
7047;SDS011;3565;53.254;10.352;2022-08-30T13:48:30;4.00;;;1.50;;
7047;SDS011;3565;53.254;10.352;2022-08-30T13:51:00;5.03;;;1.37;;
7047;SDS011;3565;53.254;10.352;2022-08-30T13:53:28;2.10;;;1.60;;
7047;SDS011;3565;53.254;10.352;2022-08-30T13:55:57;2.17;;;1.30;;
7047;SDS011;3565;53.254;10.352;2022-08-30T13:58:27;2.07;;;1.40;;
7047;SDS011;3565;53.254;10.352;2022-08-30T14:00:56;1.23;;;1.13;;
7047;SDS011;3565;53.254;10.352;2022-08-30T14:03:26;1.77;;;1.10;;
7047;SDS011;3565;53.254;10.352;2022-08-30T14:05:55;2.03;;;1.40;;
7047;SDS011;3565;53.254;10.352;2022-08-30T14:08:25;1.93;;;1.23;;
7047;SDS011;3565;53.254;10.352;2022-08-30T14:10:54;3.33;;;1.60;;
7047;SDS011;3565;53.254;10.352;2022-08-30T14:13:23;2.10;;;1.20;;
7047;SDS011;3565;53.254;10.352;2022-08-30T14:15:54;1.83;;;1.27;;
7047;SDS011;3565;53.254;10.352;2022-08-30T14:18:23;2.00;;;1.27;;
7047;SDS011;3565;53.254;10.352;2022-08-30T14:20:52;4.50;;;1.40;;
7047;SDS011;3565;53.254;10.352;2022-08-30T14:23:20;2.00;;;1.43;;
7047;SDS011;3565;53.254;10.352;2022-08-30T14:25:49;2.77;;;1.60;;
7047;SDS011;3565;53.254;10.352;2022-08-30T14:28:18;3.40;;;1.50;;
7047;SDS011;3565;53.254;10.352;2022-08-30T14:30:47;1.40;;;1.30;;
7047;SDS011;3565;53.254;10.352;2022-08-30T14:33:15;1.80;;;1.40;;
7047;SDS011;3565;53.254;10.352;2022-08-30T14:35:44;1.83;;;1.40;;
7047;SDS011;3565;53.254;10.352;2022-08-30T14:38:12;2.10;;;1.40;;
7047;SDS011;3565;53.254;10.352;2022-08-30T14:40:41;2.27;;;1.20;;
7047;SDS011;3565;53.254;10.352;2022-08-30T14:43:09;3.37;;;1.43;;
7047;SDS011;3565;53.254;10.352;2022-08-30T14:45:38;1.93;;;1.30;;
7047;SDS011;3565;53.254;10.352;2022-08-30T14:48:07;3.07;;;1.60;;
7047;SDS011;3565;53.254;10.352;2022-08-30T14:50:37;2.00;;;1.30;;
7047;SDS011;3565;53.254;10.352;2022-08-30T14:53:05;1.70;;;1.50;;
7047;SDS011;3565;53.254;10.352;2022-08-30T14:55:34;2.27;;;1.40;;
7047;SDS011;3565;53.254;10.352;2022-08-30T14:58:03;2.60;;;1.20;;
7047;SDS011;3565;53.254;10.352;2022-08-30T15:00:32;1.70;;;1.30;;
7047;SDS011;3565;53.254;10.352;2022-08-30T15:03:01;2.03;;;1.30;;
7047;SDS011;3565;53.254;10.352;2022-08-30T15:05:29;1.77;;;1.40;;
7047;SDS011;3565;53.254;10.352;2022-08-30T15:07:58;3.27;;;1.40;;
7047;SDS011;3565;53.254;10.352;2022-08-30T15:10:26;2.00;;;1.50;;
7047;SDS011;3565;53.254;10.352;2022-08-30T15:12:55;1.87;;;1.50;;
7047;SDS011;3565;53.254;10.352;2022-08-30T15:15:24;1.80;;;1.43;;
7047;SDS011;3565;53.254;10.352;2022-08-30T15:17:52;2.87;;;1.50;;
7047;SDS011;3565;53.254;10.352;2022-08-30T15:20:21;2.10;;;1.40;;
7047;SDS011;3565;53.254;10.352;2022-08-30T15:22:50;1.50;;;1.20;;
7047;SDS011;3565;53.254;10.352;2022-08-30T15:25:18;2.70;;;1.40;;
7047;SDS011;3565;53.254;10.352;2022-08-30T15:27:47;2.53;;;1.60;;
7047;SDS011;3565;53.254;10.352;2022-08-30T15:30:15;1.67;;;1.53;;
7047;SDS011;3565;53.254;10.352;2022-08-30T15:32:43;1.50;;;1.40;;
7047;SDS011;3565;53.254;10.352;2022-08-30T15:35:12;1.80;;;1.50;;
7047;SDS011;3565;53.254;10.352;2022-08-30T15:37:41;2.33;;;1.40;;
7047;SDS011;3565;53.254;10.352;2022-08-30T15:40:10;2.87;;;1.70;;
7047;SDS011;3565;53.254;10.352;2022-08-30T15:42:38;1.40;;;1.30;;
7047;SDS011;3565;53.254;10.352;2022-08-30T15:45:08;1.57;;;1.30;;
7047;SDS011;3565;53.254;10.352;2022-08-30T15:47:37;2.33;;;1.20;;